Time;durP1;ratioP1;P1;durP2;ratioP2;P2;SDS_P1;SDS_P2;PMS_P1;PMS_P2;Temp;Humidity;BMP_temperature;BMP_pressure;BME280_temperature;BME280_humidity;BME280_pressure;Samples;Min_cycle;Max_cycle;Signal;HPM_P1;HPM_P2
2024/01/26 00:01:54;;;;;;;1.20;1.00;;;;;;;13.06;52.50;97432.12;104412;1272;66238;-35
2024/01/26 00:04:21;;;;;;;1.00;0.90;;;;;;;13.06;52.41;97433.95;104725;1268;72611;-35
2024/01/26 00:06:48;;;;;;;1.10;1.00;;;;;;;13.06;52.56;97441.27;104716;1272;60583;-35
2024/01/26 00:09:15;;;;;;;1.20;0.80;;;;;;;13.05;52.41;97443.64;104683;1268;60467;-35
2024/01/26 00:11:42;;;;;;;1.00;0.90;;;;;;;13.06;52.48;97446.58;104621;1272;73592;-35
2024/01/26 00:14:09;;;;;;;1.40;0.80;;;;;;;13.05;52.30;97450.23;104981;1273;66142;-35
2024/01/26 00:16:37;;;;;;;0.90;0.80;;;;;;;13.05;52.32;97452.06;104468;1268;72587;-35
2024/01/26 00:19:07;;;;;;;1.10;0.90;;;;;;;13.05;52.27;97457.08;104896;1273;60579;-35
2024/01/26 00:21:34;;;;;;;0.80;0.80;;;;;;;13.06;52.45;97461.85;104597;1271;60491;-35
2024/01/26 00:24:01;;;;;;;1.20;1.00;;;;;;;13.05;52.39;97464.21;104465;1268;73823;-35
2024/01/26 00:26:27;;;;;;;1.00;0.70;;;;;;;13.05;52.45;97467.65;104444;1272;66081;-35
2024/01/26 00:28:54;;;;;;;1.00;0.80;;;;;;;13.06;52.47;97467.69;104727;1268;72760;-35
2024/01/26 00:31:20;;;;;;;1.60;0.90;;;;;;;13.06;52.35;97475.08;104429;1273;60475;-35
2024/01/26 00:33:47;;;;;;;0.80;0.80;;;;;;;13.06;52.47;97480.79;104484;1268;60417;-34
2024/01/26 00:36:14;;;;;;;1.40;0.80;;;;;;;13.06;52.45;97474.11;104604;1269;72545;-37
2024/01/26 00:38:41;;;;;;;0.90;0.90;;;;;;;13.06;52.28;97475.23;104530;1273;66431;-37
2024/01/26 00:41:07;;;;;;;1.00;0.90;;;;;;;13.06;52.28;97476.70;104641;1268;72694;-36
2024/01/26 00:43:34;;;;;;;1.70;1.00;;;;;;;13.06;52.42;97480.62;104590;1273;60491;-37
2024/01/26 00:46:01;;;;;;;1.00;0.90;;;;;;;13.06;52.38;97483.90;104527;1268;60623;-35
2024/01/26 00:48:28;;;;;;;0.90;0.80;;;;;;;13.06;52.32;97486.86;104718;1268;73686;-35
2024/01/26 00:50:55;;;;;;;0.90;0.80;;;;;;;13.06;52.32;97492.29;104768;1272;66300;-35
2024/01/26 00:53:22;;;;;;;1.10;0.90;;;;;;;13.07;52.42;97485.52;104630;1268;72568;-35
2024/01/26 00:55:49;;;;;;;1.40;0.70;;;;;;;13.07;52.29;97496.03;104542;1272;60476;-35
2024/01/26 00:58:16;;;;;;;1.00;0.90;;;;;;;13.06;52.33;97495.45;104437;1271;60468;-35
2024/01/26 01:00:42;;;;;;;1.00;0.90;;;;;;;13.06;52.35;97500.07;104703;1268;74249;-35
2024/01/26 01:03:09;;;;;;;0.70;0.70;;;;;;;13.07;52.45;97499.16;104664;1272;65815;-35
2024/01/26 01:05:36;;;;;;;0.50;0.50;;;;;;;13.06;52.47;97500.35;104683;1268;72440;-35
2024/01/26 01:08:04;;;;;;;0.70;0.70;;;;;;;13.07;52.34;97501.24;104716;1273;60468;-35
2024/01/26 01:10:31;;;;;;;1.00;0.90;;;;;;;13.07;52.36;97504.54;104850;1268;60455;-35
2024/01/26 01:12:57;;;;;;;0.90;0.90;;;;;;;13.06;52.40;97506.05;104538;1268;73591;-35
2024/01/26 01:15:24;;;;;;;0.80;0.80;;;;;;;13.06;52.36;97504.27;104749;1273;66032;-35
2024/01/26 01:17:51;;;;;;;0.90;0.80;;;;;;;13.07;52.32;97509.38;104553;1272;72480;-35
2024/01/26 01:20:17;;;;;;;1.00;0.90;;;;;;;13.06;52.29;97510.30;104683;1273;60478;-35
2024/01/26 01:22:44;;;;;;;1.20;0.80;;;;;;;13.06;52.43;97512.49;104743;1268;60530;-35
2024/01/26 01:25:14;;;;;;;1.30;0.90;;;;;;;13.06;52.32;97515.40;104571;1268;73822;-35
2024/01/26 01:27:41;;;;;;;0.80;0.80;;;;;;;13.06;52.30;97518.42;104733;1272;64200;-35
2024/01/26 01:30:08;;;;;;;0.90;0.80;;;;;;;13.06;52.30;97520.35;104703;1268;72336;-35
2024/01/26 01:32:35;;;;;;;0.90;0.80;;;;;;;13.06;52.35;97519.92;104734;1273;60446;-35
2024/01/26 01:35:02;;;;;;;0.90;0.80;;;;;;;13.06;52.24;97529.98;104791;1268;60557;-35
2024/01/26 01:37:29;;;;;;;1.20;0.80;;;;;;;13.06;52.36;97533.85;104600;1273;73605;-35
2024/01/26 01:39:55;;;;;;;0.80;0.80;;;;;;;13.06;52.40;97536.09;104457;1272;66386;-36
2024/01/26 01:42:22;;;;;;;2.20;1.00;;;;;;;13.06;52.16;97537.08;104328;1268;72658;-35
2024/01/26 01:44:49;;;;;;;1.30;0.90;;;;;;;13.06;52.35;97540.88;104457;1273;60576;-36
2024/01/26 01:47:15;;;;;;;1.20;0.90;;;;;;;13.06;52.35;97538.52;104435;1268;61612;-35
2024/01/26 01:49:43;;;;;;;1.20;1.10;;;;;;;13.05;52.31;97539.33;104510;1268;73765;-36
2024/01/26 01:52:11;;;;;;;1.30;0.90;;;;;;;13.05;52.16;97544.54;104525;1273;65384;-36
2024/01/26 01:54:38;;;;;;;1.00;0.80;;;;;;;13.06;52.25;97547.45;104476;1268;72499;-36
2024/01/26 01:57:04;;;;;;;1.70;0.90;;;;;;;13.06;52.19;97544.27;104565;1273;60577;-35
2024/01/26 01:59:32;;;;;;;0.90;0.90;;;;;;;13.05;52.33;97546.70;104635;1268;60414;-36
2024/01/26 02:01:59;;;;;;;1.00;0.80;;;;;;;13.06;52.29;97547.14;104613;1269;73610;-37
2024/01/26 02:04:26;;;;;;;0.80;0.80;;;;;;;13.06;52.18;97550.67;104422;1273;65552;-36
2024/01/26 02:06:57;;;;;;;0.70;0.70;;;;;;;13.06;52.23;97556.27;104494;1268;72442;-35
2024/01/26 02:09:24;;;;;;;0.80;0.80;;;;;;;13.06;52.17;97553.63;104589;1272;60616;-34
2024/01/26 02:11:51;;;;;;;0.90;0.80;;;;;;;13.06;52.21;97559.33;104563;1268;60467;-36
2024/01/26 02:14:18;;;;;;;1.00;0.80;;;;;;;13.06;52.18;97558.80;104675;1268;73810;-35
2024/01/26 02:16:55;;;;;;;0.90;0.70;;;;;;;13.06;52.23;97564.71;104632;1273;65173;-37
2024/01/26 02:19:22;;;;;;;0.80;0.70;;;;;;;13.06;52.27;97570.47;104584;1268;71679;-36
2024/01/26 02:21:51;;;;;;;0.90;0.80;;;;;;;13.06;52.32;97573.70;104623;1268;60964;-36
2024/01/26 02:24:18;;;;;;;0.90;0.80;;;;;;;13.05;52.17;97575.37;104756;1268;60555;-36
2024/01/26 02:26:46;;;;;;;1.20;1.10;;;;;;;13.06;52.23;97576.50;104687;1272;73747;-34
2024/01/26 02:29:12;;;;;;;0.80;0.80;;;;;;;13.06;52.23;97574.11;104824;1273;65425;-35
2024/01/26 02:31:39;;;;;;;1.50;0.90;;;;;;;13.06;52.19;97574.61;104510;1268;72679;-35
2024/01/26 02:34:12;;;;;;;0.80;0.80;;;;;;;13.05;52.27;97575.58;104583;1273;60574;-35
2024/01/26 02:36:39;;;;;;;0.80;0.70;;;;;;;13.06;52.24;97581.70;104756;1268;60479;-35
2024/01/26 02:39:06;;;;;;;1.20;1.10;;;;;;;13.05;52.12;97582.35;105013;1272;74224;-35
2024/01/26 02:41:34;;;;;;;0.70;0.70;;;;;;;13.06;52.24;97584.92;104587;1273;66112;-35
2024/01/26 02:44:01;;;;;;;1.20;1.00;;;;;;;13.05;52.18;97588.09;105183;1268;73042;-36
2024/01/26 02:46:28;;;;;;;1.00;0.80;;;;;;;13.06;52.17;97595.14;104755;1273;60475;-34
2024/01/26 02:48:55;;;;;;;0.80;0.70;;;;;;;13.06;52.19;97597.18;104674;1268;60440;-35
2024/01/26 02:51:22;;;;;;;0.90;0.80;;;;;;;13.06;52.20;97602.52;104451;1272;73592;-36
2024/01/26 02:53:49;;;;;;;0.80;0.80;;;;;;;13.06;52.11;97604.98;104473;1272;65941;-36
2024/01/26 02:56:15;;;;;;;0.90;0.70;;;;;;;13.06;52.14;97608.05;104393;1268;72568;-35
2024/01/26 02:58:42;;;;;;;0.90;0.80;;;;;;;13.06;52.14;97606.59;104453;1267;60445;-35
2024/01/26 03:01:09;;;;;;;0.90;0.80;;;;;;;13.06;52.23;97608.43;104447;1268;60530;-35
2024/01/26 03:03:36;;;;;;;0.70;0.70;;;;;;;13.06;52.22;97612.83;104416;1269;73816;-35
2024/01/26 03:06:03;;;;;;;0.70;0.70;;;;;;;13.06;52.16;97614.83;104505;1273;65806;-35
2024/01/26 03:08:31;;;;;;;0.80;0.70;;;;;;;13.06;52.24;97614.56;104563;1268;71157;-35
2024/01/26 03:10:57;;;;;;;1.10;0.90;;;;;;;13.06;52.19;97624.30;104648;1271;60552;-35
2024/01/26 03:13:24;;;;;;;0.90;0.80;;;;;;;13.06;52.08;97624.13;104446;1268;60491;-35
2024/01/26 03:15:51;;;;;;;0.80;0.70;;;;;;;13.07;52.21;97630.90;104454;1268;73839;-35
2024/01/26 03:18:18;;;;;;;1.10;0.70;;;;;;;13.06;52.19;97629.94;104462;1272;66153;-35
2024/01/26 03:20:45;;;;;;;0.80;0.80;;;;;;;13.06;52.13;97633.96;104443;1268;72740;-36
2024/01/26 03:23:12;;;;;;;0.70;0.70;;;;;;;13.06;52.08;97632.94;104449;1272;60572;-35
2024/01/26 03:25:39;;;;;;;0.60;0.60;;;;;;;13.06;52.09;97635.09;104408;1268;60556;-36
2024/01/26 03:28:06;;;;;;;0.90;0.70;;;;;;;13.06;52.20;97632.58;104508;1271;73622;-34
2024/01/26 03:30:33;;;;;;;0.90;0.80;;;;;;;13.06;52.04;97634.89;104511;1273;65754;-35
2024/01/26 03:33:00;;;;;;;0.90;0.80;;;;;;;13.07;52.08;97639.77;104420;1268;72426;-36
2024/01/26 03:35:27;;;;;;;1.00;0.80;;;;;;;13.07;52.14;97637.68;104580;1273;60558;-35
2024/01/26 03:37:55;;;;;;;1.20;0.90;;;;;;;13.06;52.02;97643.70;104614;1268;60472;-36
2024/01/26 03:40:24;;;;;;;1.30;0.90;;;;;;;13.06;52.17;97644.79;104751;1269;73624;-34
2024/01/26 03:42:51;;;;;;;1.00;0.90;;;;;;;13.06;52.09;97642.48;104726;1272;63994;-35
2024/01/26 03:45:18;;;;;;;1.30;0.70;;;;;;;13.06;52.07;97649.09;104753;1268;72668;-36
2024/01/26 03:47:45;;;;;;;0.80;0.70;;;;;;;13.06;52.05;97652.90;104553;1273;60468;-36
2024/01/26 03:50:12;;;;;;;0.70;0.70;;;;;;;13.05;52.08;97655.64;104576;1268;60913;-37
2024/01/26 03:52:38;;;;;;;0.60;0.60;;;;;;;13.06;52.19;97658.44;104543;1268;73926;-37
2024/01/26 03:55:07;;;;;;;0.60;0.60;;;;;;;13.06;52.06;97663.44;104474;1273;64908;-37
2024/01/26 03:57:35;;;;;;;0.70;0.60;;;;;;;13.06;51.96;97674.40;104688;1268;72420;-37
2024/01/26 04:00:04;;;;;;;0.70;0.60;;;;;;;13.06;52.08;97673.11;104722;1274;60468;-37
2024/01/26 04:02:38;;;;;;;0.60;0.60;;;;;;;13.06;51.99;97676.02;104765;1268;60544;-35
2024/01/26 04:05:05;;;;;;;0.90;0.70;;;;;;;13.06;52.09;97681.08;104565;1268;73611;-35
2024/01/26 04:07:32;;;;;;;0.70;0.70;;;;;;;13.06;52.09;97680.86;104418;1273;65282;-35
2024/01/26 04:09:59;;;;;;;0.80;0.70;;;;;;;13.06;52.15;97682.32;104490;1268;72452;-35
2024/01/26 04:12:26;;;;;;;0.70;0.70;;;;;;;13.06;52.13;97683.81;104404;1272;60504;-35
2024/01/26 04:14:52;;;;;;;0.90;0.80;;;;;;;13.06;52.05;97686.77;104494;1268;61048;-36
2024/01/26 04:17:19;;;;;;;0.70;0.70;;;;;;;13.06;52.15;97689.63;104480;1273;74025;-36
2024/01/26 04:19:46;;;;;;;0.90;0.70;;;;;;;13.06;52.12;97692.00;104460;1272;65624;-36
2024/01/26 04:22:13;;;;;;;0.80;0.70;;;;;;;13.05;52.01;97697.58;104366;1268;73149;-36
2024/01/26 04:24:39;;;;;;;1.00;0.70;;;;;;;13.06;51.99;97702.74;104504;1274;60573;-36
2024/01/26 04:27:07;;;;;;;1.10;0.70;;;;;;;13.05;52.01;97703.93;104393;1268;60654;-36
2024/01/26 04:29:34;;;;;;;0.70;0.70;;;;;;;13.06;52.01;97709.35;104448;1268;73607;-36
2024/01/26 04:32:01;;;;;;;1.00;0.80;;;;;;;13.05;52.14;97712.48;104452;1272;66235;-35
2024/01/26 04:34:27;;;;;;;0.70;0.70;;;;;;;13.06;52.01;97719.95;104548;1268;73184;-35
2024/01/26 04:36:55;;;;;;;0.70;0.70;;;;;;;13.05;51.96;97726.62;104522;1274;60575;-35
2024/01/26 04:39:21;;;;;;;0.60;0.60;;;;;;;13.06;52.01;97730.17;104423;1268;60478;-35
2024/01/26 04:41:48;;;;;;;0.90;0.70;;;;;;;13.06;52.12;97734.95;104404;1269;73611;-35
2024/01/26 04:44:14;;;;;;;0.70;0.70;;;;;;;13.05;51.94;97742.27;104406;1272;65783;-35
2024/01/26 04:46:41;;;;;;;0.60;0.60;;;;;;;13.05;52.08;97747.42;104447;1268;72726;-35
2024/01/26 04:49:08;;;;;;;0.70;0.60;;;;;;;13.05;52.02;97752.85;104458;1272;60452;-35
2024/01/26 04:51:37;;;;;;;1.60;0.80;;;;;;;13.06;52.04;97754.85;104487;1272;60893;-35
2024/01/26 04:54:04;;;;;;;0.70;0.70;;;;;;;13.05;52.00;97760.35;104959;1268;73614;-34
2024/01/26 04:56:31;;;;;;;0.60;0.60;;;;;;;13.06;52.10;97763.52;104600;1273;66077;-35
2024/01/26 04:58:58;;;;;;;0.70;0.70;;;;;;;13.05;52.02;97769.48;105114;1273;72456;-35
2024/01/26 05:01:24;;;;;;;0.70;0.70;;;;;;;13.06;52.11;97769.96;104465;1273;60574;-36
2024/01/26 05:03:51;;;;;;;0.80;0.70;;;;;;;13.06;52.03;97775.86;105047;1271;60921;-36
2024/01/26 05:06:18;;;;;;;0.60;0.60;;;;;;;13.06;52.02;97775.39;104572;1268;73814;-36
2024/01/26 05:08:47;;;;;;;0.60;0.60;;;;;;;13.06;51.97;97774.42;104480;1273;65656;-36
2024/01/26 05:11:14;;;;;;;0.70;0.70;;;;;;;13.06;52.07;97778.99;104612;1268;72523;-37
2024/01/26 05:13:40;;;;;;;0.60;0.60;;;;;;;13.06;52.04;97777.77;104509;1274;60597;-36
2024/01/26 05:16:07;;;;;;;0.80;0.80;;;;;;;13.06;51.91;97778.14;104446;1268;60581;-36
2024/01/26 05:18:33;;;;;;;0.70;0.70;;;;;;;13.06;51.96;97780.83;104361;1268;73735;-37
2024/01/26 05:21:00;;;;;;;0.70;0.70;;;;;;;13.06;51.89;97786.36;104629;1272;66255;-36
2024/01/26 05:23:27;;;;;;;0.80;0.60;;;;;;;13.06;51.93;97785.27;104520;1268;72539;-37
2024/01/26 05:25:54;;;;;;;0.90;0.70;;;;;;;13.06;51.95;97785.73;104559;1273;60411;-36
2024/01/26 05:28:21;;;;;;;0.70;0.70;;;;;;;13.05;51.92;97794.21;104482;1268;60580;-36
2024/01/26 05:30:47;;;;;;;0.70;0.70;;;;;;;13.06;52.13;97797.92;104479;1270;73793;-36
2024/01/26 05:33:14;;;;;;;1.00;0.90;;;;;;;13.06;51.98;97802.55;104492;1273;66051;-36
2024/01/26 05:35:41;;;;;;;0.60;0.60;;;;;;;13.06;51.90;97806.31;104433;1268;72455;-36
2024/01/26 05:38:07;;;;;;;0.70;0.60;;;;;;;13.06;51.93;97809.32;104336;1273;60562;-36
2024/01/26 05:40:34;;;;;;;0.50;0.50;;;;;;;13.06;51.97;97809.00;104493;1273;60531;-36
2024/01/26 05:43:01;;;;;;;1.00;0.80;;;;;;;13.06;52.02;97813.69;104405;1274;73865;-35
2024/01/26 05:45:28;;;;;;;0.60;0.60;;;;;;;13.05;52.08;97814.27;104492;1271;66045;-36
2024/01/26 05:47:56;;;;;;;0.50;0.50;;;;;;;13.06;51.98;97817.07;104573;1268;71344;-36
2024/01/26 05:50:23;;;;;;;0.90;0.70;;;;;;;13.06;51.91;97824.11;104765;1273;60545;-36
2024/01/26 05:52:50;;;;;;;0.60;0.60;;;;;;;13.05;52.00;97822.22;104487;1268;60475;-36
2024/01/26 05:55:17;;;;;;;1.70;0.60;;;;;;;13.06;52.04;97827.34;104459;1272;73851;-36
2024/01/26 05:57:43;;;;;;;0.90;0.60;;;;;;;13.06;51.99;97833.64;104736;1271;65728;-36
2024/01/26 06:00:11;;;;;;;0.70;0.60;;;;;;;13.06;51.94;97835.40;104494;1268;72901;-36
2024/01/26 06:02:41;;;;;;;0.80;0.80;;;;;;;13.06;51.91;97834.81;104594;1273;60929;-36
2024/01/26 06:05:08;;;;;;;0.70;0.70;;;;;;;13.05;51.97;97839.11;104463;1271;60441;-36
2024/01/26 06:07:35;;;;;;;0.40;0.40;;;;;;;13.05;51.88;97840.52;104471;1274;74316;-36
2024/01/26 06:10:01;;;;;;;1.10;0.70;;;;;;;13.05;52.01;97843.89;104476;1272;65660;-36
2024/01/26 06:12:28;;;;;;;0.70;0.70;;;;;;;13.05;51.91;97853.09;104669;1268;72633;-36
2024/01/26 06:14:55;;;;;;;0.80;0.80;;;;;;;13.05;51.84;97861.64;104404;1274;60932;-36
2024/01/26 06:17:21;;;;;;;0.80;0.70;;;;;;;13.06;51.97;97865.14;104465;1268;60414;-36
2024/01/26 06:19:48;;;;;;;0.60;0.60;;;;;;;13.05;51.91;97870.04;104468;1269;73649;-36
2024/01/26 06:22:15;;;;;;;0.60;0.60;;;;;;;13.05;51.97;97876.86;104509;1272;66183;-36
2024/01/26 06:24:41;;;;;;;1.10;0.80;;;;;;;13.05;52.00;97878.68;104510;1273;72821;-36
2024/01/26 06:27:08;;;;;;;0.60;0.60;;;;;;;13.05;51.93;97879.16;104414;1272;60491;-36
2024/01/26 06:29:39;;;;;;;0.70;0.50;;;;;;;13.05;51.97;97881.55;104491;1268;60473;-36
2024/01/26 06:32:06;;;;;;;0.50;0.50;;;;;;;13.05;52.01;97886.74;104381;1268;73830;-36
2024/01/26 06:34:33;;;;;;;0.40;0.40;;;;;;;13.06;51.89;97893.11;104489;1273;66221;-36
2024/01/26 06:37:01;;;;;;;1.30;0.80;;;;;;;13.05;51.92;97901.77;104629;1269;72467;-36
2024/01/26 06:39:27;;;;;;;0.90;0.70;;;;;;;13.06;51.97;97907.09;104688;1273;60475;-35
2024/01/26 06:41:54;;;;;;;0.70;0.70;;;;;;;13.05;52.02;97909.03;104550;1273;61654;-36
2024/01/26 06:44:20;;;;;;;0.60;0.60;;;;;;;13.05;51.90;97916.40;104530;1272;73943;-36
2024/01/26 06:46:47;;;;;;;0.70;0.70;;;;;;;13.05;51.92;97916.83;104540;1273;66033;-36
2024/01/26 06:49:14;;;;;;;1.30;0.50;;;;;;;13.05;51.92;97921.34;104556;1274;72568;-35
2024/01/26 06:51:40;;;;;;;0.60;0.60;;;;;;;13.05;51.84;97924.36;104751;1274;60451;-36
2024/01/26 06:54:07;;;;;;;0.50;0.50;;;;;;;13.05;51.86;97924.45;104666;1273;60414;-34
2024/01/26 06:56:34;;;;;;;0.70;0.70;;;;;;;13.05;51.85;97929.02;104536;1268;73933;-37
2024/01/26 06:59:01;;;;;;;0.70;0.60;;;;;;;13.05;51.92;97933.72;104492;1273;64891;-36
2024/01/26 07:01:28;;;;;;;0.80;0.70;;;;;;;13.05;52.00;97932.85;104456;1273;72701;-36
2024/01/26 07:03:55;;;;;;;0.90;0.70;;;;;;;13.05;51.98;97936.17;104520;1274;60574;-35
2024/01/26 07:06:22;;;;;;;0.80;0.70;;;;;;;13.06;51.92;97933.98;104625;1269;60494;-35
2024/01/26 07:08:49;;;;;;;1.10;0.80;;;;;;;13.05;51.98;97935.80;104454;1273;73799;-35
2024/01/26 07:11:18;;;;;;;0.60;0.60;;;;;;;13.06;51.93;97942.58;104472;1272;65151;-37
2024/01/26 07:13:45;;;;;;;0.80;0.50;;;;;;;13.05;51.84;97940.48;105031;1268;72357;-35
2024/01/26 07:16:11;;;;;;;1.00;0.70;;;;;;;13.05;51.91;97941.71;104443;1271;60463;-36
2024/01/26 07:18:38;;;;;;;0.90;0.70;;;;;;;13.06;52.05;97947.09;104467;1273;60440;-36
2024/01/26 07:21:07;;;;;;;0.60;0.60;;;;;;;13.06;52.14;97946.08;104544;1273;73784;-36
2024/01/26 07:23:34;;;;;;;1.10;0.70;;;;;;;13.06;52.22;97945.31;104444;1273;65180;-35
2024/01/26 07:26:01;;;;;;;0.90;0.70;;;;;;;13.07;52.41;97949.04;104416;1269;72486;-35
2024/01/26 07:28:28;;;;;;;0.70;0.50;;;;;;;13.07;52.39;97946.59;104492;1274;60907;-36
2024/01/26 07:30:54;;;;;;;0.60;0.60;;;;;;;13.08;52.58;97950.06;104469;1269;60457;-37
2024/01/26 07:33:21;;;;;;;0.60;0.50;;;;;;;13.08;52.67;97955.55;104434;1270;73879;-35
2024/01/26 07:35:48;;;;;;;2.20;0.70;;;;;;;13.09;52.78;97953.98;104698;1273;66868;-35
2024/01/26 07:38:15;;;;;;;1.40;0.80;;;;;;;13.10;53.05;97957.56;104585;1273;72365;-35
2024/01/26 07:40:41;;;;;;;0.70;0.70;;;;;;;13.11;53.01;97962.73;104518;1271;60558;-36
2024/01/26 07:43:09;;;;;;;1.40;0.90;;;;;;;13.11;53.13;97964.02;104437;1273;60556;-36
2024/01/26 07:45:36;;;;;;;0.70;0.60;;;;;;;13.13;53.25;97964.46;104664;1270;72550;-36
2024/01/26 07:48:03;;;;;;;1.50;0.80;;;;;;;13.13;53.20;97964.08;104633;1273;65575;-36
2024/01/26 07:50:30;;;;;;;1.20;0.80;;;;;;;13.14;53.15;97967.46;104670;1268;72446;-37
2024/01/26 07:52:57;;;;;;;1.50;0.90;;;;;;;13.14;53.30;97969.16;104430;1272;60467;-36
2024/01/26 07:55:24;;;;;;;0.80;0.70;;;;;;;13.15;53.12;97974.20;104559;1270;60633;-36
2024/01/26 07:57:51;;;;;;;1.50;0.80;;;;;;;13.15;53.22;97976.98;108327;1268;74016;-36
2024/01/26 08:00:18;;;;;;;1.10;0.80;;;;;;;13.17;53.17;97985.19;104901;1269;60941;-35
2024/01/26 08:02:46;;;;;;;1.40;1.10;;;;;;;13.17;53.29;97989.52;104457;1273;72637;-36
2024/01/26 08:05:13;;;;;;;2.40;0.90;;;;;;;13.19;53.18;97990.89;104706;1274;61279;-37
2024/01/26 08:07:41;;;;;;;5.00;0.80;;;;;;;13.19;53.08;97995.82;104480;1273;60475;-36
2024/01/26 08:10:09;;;;;;;0.90;0.80;;;;;;;13.20;53.19;98000.59;104505;1268;72578;-36
2024/01/26 08:12:36;;;;;;;1.30;0.90;;;;;;;13.21;53.10;98007.40;104488;1268;65003;-35
2024/01/26 08:15:11;;;;;;;;;;;;;;;13.22;53.24;98010.22;104568;1271;71363;-38
2024/01/26 08:17:38;;;;;;;0.80;0.70;;;;;;;13.22;53.23;98010.27;104714;1281;60444;-37
2024/01/26 08:20:07;;;;;;;1.10;0.70;;;;;;;13.23;53.34;98010.32;104445;1273;60584;-36
2024/01/26 08:22:41;;;;;;;1.90;0.80;;;;;;;13.23;53.28;98018.16;104426;1272;73031;-36
2024/01/26 08:25:08;;;;;;;5.80;0.80;;;;;;;13.23;53.42;98021.86;104479;1272;66099;-35
2024/01/26 08:27:36;;;;;;;2.00;1.00;;;;;;;13.24;53.27;98027.59;104416;1272;72688;-37
2024/01/26 08:30:04;;;;;;;1.50;0.70;;;;;;;13.25;53.32;98026.02;104409;1281;60463;-38
2024/01/26 08:32:32;;;;;;;1.30;0.90;;;;;;;13.25;53.32;98034.04;104496;1273;60464;-40
2024/01/26 08:34:58;;;;;;;3.40;0.80;;;;;;;13.26;53.36;98034.00;104345;1273;74323;-35
2024/01/26 08:37:25;;;;;;;1.00;0.60;;;;;;;13.27;53.47;98037.05;104482;1271;64873;-35
2024/01/26 08:39:54;;;;;;;1.10;0.70;;;;;;;13.28;53.37;98040.10;104391;1271;72516;-35
2024/01/26 08:42:21;;;;;;;1.60;0.90;;;;;;;13.29;53.36;98044.91;104445;1274;60520;-37
2024/01/26 08:44:48;;;;;;;2.10;1.00;;;;;;;13.30;53.30;98044.95;104672;1268;60571;-36
2024/01/26 08:47:15;;;;;;;1.10;0.90;;;;;;;13.31;53.33;98046.09;104423;1273;72741;-36
2024/01/26 08:49:41;;;;;;;1.40;0.60;;;;;;;13.31;53.43;98043.02;104574;1273;66292;-36
2024/01/26 08:52:08;;;;;;;1.20;0.70;;;;;;;13.32;53.45;98042.31;104536;1273;72505;-36
2024/01/26 08:54:35;;;;;;;3.10;0.90;;;;;;;13.33;53.55;98041.11;104580;1273;60498;-36
2024/01/26 08:57:01;;;;;;;1.30;0.70;;;;;;;13.34;53.49;98045.86;104776;1273;60441;-38
2024/01/26 08:59:28;;;;;;;2.80;1.10;;;;;;;13.34;53.51;98044.19;104562;1269;74370;-36
2024/01/26 09:01:55;;;;;;;0.70;0.50;;;;;;;13.35;53.49;98042.34;104677;1272;66670;-37
2024/01/26 09:04:22;;;;;;;1.10;0.80;;;;;;;13.35;53.47;98044.27;104646;1273;73019;-39
2024/01/26 09:06:49;;;;;;;1.60;0.90;;;;;;;13.37;53.58;98047.46;104524;1274;60580;-37
2024/01/26 09:09:23;;;;;;;1.00;0.70;;;;;;;13.37;53.56;98048.05;104442;1268;60831;-36
2024/01/26 09:11:51;;;;;;;0.70;0.60;;;;;;;13.38;53.61;98048.55;104519;1274;73856;-37
2024/01/26 09:14:18;;;;;;;1.50;0.90;;;;;;;13.39;53.50;98045.42;104493;1274;66698;-35
2024/01/26 09:16:50;;;;;;;0.80;0.70;;;;;;;13.40;53.29;98049.70;104552;1268;72529;-37
2024/01/26 09:19:18;;;;;;;1.20;0.90;;;;;;;13.40;53.42;98050.27;107056;1271;60440;-37
2024/01/26 09:21:45;;;;;;;1.10;1.00;;;;;;;13.40;53.26;98050.81;104325;1270;60464;-37
2024/01/26 09:24:12;;;;;;;4.20;1.00;;;;;;;13.41;53.19;98052.68;105245;1270;74306;-36
2024/01/26 09:26:39;;;;;;;2.60;1.00;;;;;;;13.41;52.98;98051.98;105368;1272;66670;-36
2024/01/26 09:29:06;;;;;;;1.80;0.80;;;;;;;13.42;53.06;98052.67;104818;1273;73749;-36
2024/01/26 09:31:33;;;;;;;2.40;0.80;;;;;;;13.43;53.07;98059.94;104413;1273;60465;-36
2024/01/26 09:34:00;;;;;;;1.00;0.80;;;;;;;13.44;53.02;98061.39;104424;1272;60569;-35
2024/01/26 09:36:27;;;;;;;2.60;1.00;;;;;;;13.45;53.03;98066.80;105191;1271;74112;-36
2024/01/26 09:38:54;;;;;;;2.50;0.90;;;;;;;13.46;53.00;98066.55;104418;1273;67038;-36
2024/01/26 09:41:21;;;;;;;1.40;0.90;;;;;;;13.47;52.82;98073.36;104222;1268;72633;-36
2024/01/26 09:43:48;;;;;;;1.00;0.80;;;;;;;13.47;53.07;98074.86;104271;1273;60446;-36
2024/01/26 09:46:14;;;;;;;0.80;0.80;;;;;;;13.48;52.87;98077.64;104420;1268;60471;-36
2024/01/26 09:48:41;;;;;;;1.60;0.70;;;;;;;13.49;53.01;98079.63;104566;1273;73899;-36
2024/01/26 09:51:08;;;;;;;0.90;0.80;;;;;;;13.49;52.75;98087.03;104352;1275;64996;-35
2024/01/26 09:53:35;;;;;;;2.60;0.80;;;;;;;13.50;52.94;98084.44;104478;1272;73591;-37
2024/01/26 09:56:02;;;;;;;1.00;0.70;;;;;;;13.50;52.84;98088.05;104517;1273;60927;-38
2024/01/26 09:58:29;;;;;;;1.40;0.90;;;;;;;13.50;52.78;98093.59;104374;1273;60545;-38
2024/01/26 10:00:55;;;;;;;1.60;0.80;;;;;;;13.49;52.89;98090.96;104493;1273;74707;-37
2024/01/26 10:03:23;;;;;;;1.80;0.80;;;;;;;13.50;52.75;98097.19;104598;1274;66781;-38
2024/01/26 10:05:51;;;;;;;1.80;0.80;;;;;;;13.49;52.77;98090.42;104694;1268;71475;-36
2024/01/26 10:08:18;;;;;;;3.30;0.70;;;;;;;13.49;52.65;98093.55;104539;1272;60444;-37
2024/01/26 10:10:44;;;;;;;5.60;0.90;;;;;;;13.49;52.67;98085.38;104478;1273;60472;-36
2024/01/26 10:13:12;;;;;;;2.70;0.90;;;;;;;13.48;52.50;98086.89;104516;1270;74819;-37
2024/01/26 10:15:40;;;;;;;4.70;1.10;;;;;;;13.48;52.41;98088.89;104460;1273;67387;-36
2024/01/26 10:18:07;;;;;;;1.50;0.90;;;;;;;13.48;52.32;98080.88;104566;1273;73545;-36
2024/01/26 10:20:34;;;;;;;1.80;1.10;;;;;;;13.47;52.28;98077.98;104601;1273;60474;-38
2024/01/26 10:23:01;;;;;;;3.60;1.10;;;;;;;13.46;52.28;98083.17;104570;1273;61212;-37
2024/01/26 10:25:29;;;;;;;1.30;0.90;;;;;;;13.45;52.13;98089.27;104673;1272;74204;-37
2024/01/26 12:23:39;;;;;;;13.70;1.40;;;;;;;13.10;52.46;98109.09;103597;1282;75867;-34
2024/01/26 12:26:09;;;;;;;8.80;2.00;;;;;;;13.10;52.45;98106.74;104935;1270;60162;-36
2024/01/26 12:28:35;;;;;;;8.30;1.40;;;;;;;13.09;52.38;98110.26;106597;1266;60147;-38
2024/01/26 12:31:04;;;;;;;10.50;1.70;;;;;;;13.09;52.45;98113.27;104755;1269;73690;-38
2024/01/26 12:44:05;;;;;;;11.20;1.70;;;;;;;13.08;52.58;98110.21;104845;1269;60831;-37
2024/01/26 12:46:32;;;;;;;8.00;1.60;;;;;;;13.08;52.59;98111.13;104715;1272;59750;-38
2024/01/26 12:48:58;;;;;;;9.60;1.70;;;;;;;13.08;52.55;98115.27;104761;1271;73965;-37
2024/01/26 12:51:25;;;;;;;11.50;1.70;;;;;;;13.08;52.57;98113.98;104872;1270;65720;-37
2024/01/26 12:53:52;;;;;;;5.20;1.70;;;;;;;13.08;52.60;98116.67;104761;1270;73338;-39
2024/01/26 12:56:22;;;;;;;7.10;1.50;;;;;;;13.08;52.60;98118.30;104780;1269;61150;-36
2024/01/26 12:58:49;;;;;;;5.30;1.40;;;;;;;13.08;52.51;98122.11;104776;1267;59924;-35
2024/01/26 13:01:21;;;;;;;6.60;1.50;;;;;;;13.08;52.61;98121.95;104728;1270;74271;-38
2024/01/26 13:03:49;;;;;;;6.40;1.60;;;;;;;13.07;52.56;98122.89;104781;1270;66119;-36
2024/01/26 13:06:16;;;;;;;5.00;1.40;;;;;;;13.07;52.60;98125.90;104720;1272;73550;-37
2024/01/26 13:08:45;;;;;;;9.40;1.60;;;;;;;13.07;52.58;98125.90;104699;1272;60367;-38
2024/01/26 13:11:12;;;;;;;4.40;1.60;;;;;;;13.06;52.65;98127.57;104682;1272;60157;-38
2024/01/26 13:13:40;;;;;;;5.00;1.50;;;;;;;13.05;52.68;98128.20;104674;1273;74163;-38
2024/01/26 13:16:07;;;;;;;11.60;1.60;;;;;;;13.05;52.48;98125.64;104715;1273;66193;-37
2024/01/26 13:18:34;;;;;;;4.70;1.60;;;;;;;13.04;52.58;98130.11;104805;1272;73461;-37
2024/01/26 13:21:06;;;;;;;5.20;1.50;;;;;;;13.04;52.55;98127.80;104668;1267;61385;-37
2024/01/26 13:23:33;;;;;;;5.40;1.40;;;;;;;13.04;52.61;98132.39;104461;1274;60222;-37
2024/01/26 13:26:01;;;;;;;4.50;1.40;;;;;;;13.04;52.71;98133.46;104795;1265;73617;-37
2024/01/26 13:28:28;;;;;;;4.50;1.50;;;;;;;13.03;52.71;98136.21;104810;1268;67399;-36
2024/01/26 13:30:55;;;;;;;9.20;1.60;;;;;;;13.04;52.83;98140.55;104841;1264;73168;-37